Skip to Main Content
SEARCH:
Location Air RH Dwp Precip Type Wind Speed Wind Gust Direction Pavement Temperature Date/Time
Hatem Bridge US 40 E/B 36 39 13 None 8 mph 13 mph N 37 - 37 12/10/2016 3:16:00 PM
I-270 at I-370 33 42 13 None Calm 7 mph W 38 - 46 12/10/2016 3:15:00 PM
I-270 at MD-109 33 42 12 None 9 mph 17 mph W 36 - 42 12/10/2016 3:15:00 PM
I-495 at American Legion Bridge 34 40 12 None 5 mph 13 mph NW 43 - 44 12/10/2016 3:15:00 PM
I-68 at MD-219 16 91 14 None 9 mph 16 mph W 21 - 27 12/10/2016 3:15:00 PM
I-68 at Savage Mt 18 80 13 Snow 5 mph 11 mph W 24 - 26 12/10/2016 3:15:00 PM
I-68 at Sideling Hill 27 54 13 None Calm 6 mph S 38 - 39 12/10/2016 3:15:00 PM
I-68 at WV Line 20 74 13 None 7 mph 13 mph NW 24 - 27 12/10/2016 3:15:00 PM
I-695 at I-83 34 41 13 None Calm 7 mph SW 38 - 44 12/10/2016 3:10:00 PM
I-70 at Fred-Wash Co. 28 50 12 None 6 mph 14 mph W 33 - 33 12/10/2016 3:15:00 PM
I-70 at I-695 34 42 13 None 4 mph 9 mph SW 39 - 43 12/10/2016 3:15:00 PM
I-70 at I-81 31 43 12 None 9 mph 16 mph NW 42 - 42 12/10/2016 3:15:00 PM
I-70 at MD-27 31 46 13 None 5 mph 12 mph W 40 - 42 12/10/2016 3:15:00 PM
I-70 at MD-32 33 42 12 None 5 mph 14 mph W 39 - 45 12/10/2016 3:15:00 PM
I-83 at MD-137 32 44 13 None 4 mph 11 mph SW 43 - 43 12/10/2016 3:15:00 PM
I-895 at I-95 - - - No Data Available - - No Data Available -
I-95 at I-695 NE - - - No Data Available - - No Data Available -
I-95 at Patuxent River 34 41 13 None 4 mph 12 mph N 43 - 45 12/10/2016 3:15:00 PM
I-95 at Tydings Bridge 38 40 16 None 6 mph 15 mph SW 40 - 45 12/10/2016 3:15:00 PM
I-95/495 at I-295 38 40 16 None 6 mph 12 mph NW 48 - 80 12/10/2016 3:15:00 PM
I-97 at MD-100 - - - No Data Available - - No Data Available 43 - 43 12/10/2016 3:10:00 PM
I-97 at MD-32 35 40 13 None 10 mph 22 mph N 41 - 45 12/10/2016 3:15:00 PM
MD 20 at MD 21 36 42 15 None 5 mph 14 mph NW 51 - 51 12/10/2016 3:15:00 PM
MD 231 at Patuxent River 37 38 14 None 6 mph 10 mph NW 43 - 47 12/10/2016 3:15:00 PM
MD 260 at Cox Rd 38 38 14 None Calm 9 mph NW 49 - 49 12/10/2016 3:15:00 PM
MD-135 at Salt Dome 16 89 14 Snow 4 mph 12 mph W 28 - 28 12/10/2016 3:15:00 PM
MD-140 at MD-97 31 46 13 None 10 mph 18 mph W 38 - 38 12/10/2016 3:15:00 PM
MD-200 EB at Bonifant Rd 32 43 12 None 6 mph 13 mph NW 32 - 33 12/10/2016 3:15:00 PM
MD-200 WB at Muncaster Mill Rd 33 41 12 None 6 mph 14 mph NW 40 - 41 12/10/2016 3:15:00 PM
MD-213 at Sassafras River 36 52 20 None 7 mph 11 mph W 44 - 44 12/10/2016 3:15:00 PM
MD-24 at Rock St Park 33 50 17 None Calm 7 mph SE 33 - 33 12/10/2016 3:15:00 PM
MD-30 at PA Line 29 50 13 None 10 mph 20 mph NW 38 - 38 12/10/2016 3:15:00 PM
MD-301 at MD-305 35 45 16 None 13 mph 20 mph NW 49 - 49 12/10/2016 3:15:00 PM
MD-33 at Knapps Narrows Drawbridge 36 45 17 None 15 mph 23 mph NW 55 - 55 12/10/2016 3:15:00 PM
MD-344 at MD-224 36 39 14 None 6 mph 11 mph W 39 - 39 12/10/2016 3:15:00 PM
MD-4 at Patuxent River 39 40 17 None - - No Data Available 42 - 49 12/10/2016 3:15:00 PM
MD-404 at Choptank River 36 44 17 None 7 mph 17 mph W 46 - 49 12/10/2016 3:15:00 PM
MD-43 at MD-150 36 40 14 None 8 mph 16 mph W 44 - 49 12/10/2016 3:15:00 PM
MD-51 at Oldtown Salt Dome 29 49 12 None 6 mph 11 mph W 40 - 40 12/10/2016 3:15:00 PM
MD-64 at MD-418 - - - No Data Available - - No Data Available -
US-1 at Baltimore / Harford Co. Line 34 40 13 None 5 mph 13 mph N 37 - 37 12/10/2016 3:15:00 PM
US-1 at Conowingo Dam 37 40 15 None 5 mph 9 mph NW 49 - 49 12/10/2016 3:15:00 PM
US-13 at US-113 36 47 18 None 8 mph 13 mph NW 51 - 51 12/10/2016 3:15:00 PM
US-13 at US-50 - - - No Data Available - - No Data Available -
US-15 at MD-140 33 41 12 None 8 mph 17 mph NW 38 - 44 12/10/2016 3:15:00 PM
US-301 at MD-5 35 41 14 None 5 mph 12 mph SW 45 - 49 12/10/2016 3:15:00 PM
US-301 at Potomac 40 44 20 None 10 mph 16 mph NW 46 - 48 12/10/2016 3:15:00 PM
US-301 on HWN Bridge 36 36 12 None 12 mph 14 mph NW 39 - 39 12/10/2016 3:17:00 PM
US-340 at MD-180 31 45 12 None 13 mph 19 mph NW 39 - 44 12/10/2016 3:15:00 PM
US-50 at Choptank 36 48 18 None 11 mph 17 mph W 42 - 46 12/10/2016 3:15:00 PM
US-50 at I-95 - - - No Data Available - - No Data Available -
US-50 at MD-2 35 40 13 None 10 mph 18 mph W 38 - 39 12/10/2016 3:15:00 PM
US-50 at MD-331 38 43 17 None 8 mph 13 mph NW 44 - 50 12/10/2016 3:15:00 PM
US-50 at OC Drawbridge 37 41 16 None 11 mph 19 mph W 46 - 46 12/10/2016 3:15:00 PM
US-50 at Table Rock Rd 16 90 14 Snow 4 mph 12 mph NW 29 - 29 12/10/2016 3:15:00 PM
US-50 Kent Narrow Bridge 37 40 15 None 9 mph 18 mph W 42 - 47 12/10/2016 3:15:00 PM
WPL Pier 31 33 39 11 None 18 mph 6 mph NW 32 - 32 12/10/2016 3:15:00 PM
Location Air RH Dwp Precip Type Wind Speed Wind Gust Direction Pavement Temperature Date/Time